Time;durP1;ratioP1;P1;durP2;ratioP2;P2;SDS_P1;SDS_P2;PMS_P1;PMS_P2;Temp;Humidity;BMP_temperature;BMP_pressure;BME280_temperature;BME280_humidity;BME280_pressure;Samples;Min_cycle;Max_cycle;Signal;HPM_P1;HPM_P2
2021/10/09 00:00:26;;;;;;;5.93;1.85;;;;;;;;;;4812557;28;20802;-77
2021/10/09 00:02:53;;;;;;;9.93;2.45;;;;;;;;;;4817382;28;20060;-77
2021/10/09 00:05:19;;;;;;;8.88;2.22;;;;;;;;;;4814881;28;21300;-77
2021/10/09 00:07:45;;;;;;;;;;;;;;;;;;4829573;28;20033;-76
2021/10/09 00:10:13;;;;;;;9.57;2.42;;;;;;;;;;4833127;28;19964;-77
2021/10/09 00:12:40;;;;;;;7.35;2.00;;;;;;;;;;4864337;28;20086;-77
2021/10/09 00:15:07;;;;;;;8.20;1.85;;;;;;;;;;4954950;28;20049;-76
2021/10/09 00:17:35;;;;;;;6.18;1.77;;;;;;;;;;4823890;28;21315;-76
2021/10/09 00:20:01;;;;;;;6.05;1.90;;;;;;;;;;4827246;28;20787;-78
2021/10/09 00:22:27;;;;;;;6.35;1.88;;;;;;;;;;4831413;28;20994;-79
2021/10/09 00:24:54;;;;;;;7.78;2.30;;;;;;;;;;4812795;28;20057;-78
2021/10/09 00:27:20;;;;;;;6.90;2.00;;;;;;;;;;4960314;28;20044;-78
2021/10/09 00:29:46;;;;;;;;;;;;;;;;;;5013896;28;20021;-78
2021/10/09 00:32:12;;;;;;;6.15;1.98;;;;;;;;;;5008237;28;19920;-78
2021/10/09 00:34:38;;;;;;;;;;;;;;;;;;4884629;28;20040;-77
2021/10/09 00:37:04;;;;;;;6.72;1.90;;;;;;;;;;4814112;28;19976;-78
2021/10/09 00:39:31;;;;;;;;;;;;;;;;;;4815762;28;21882;-77
2021/10/09 00:41:58;;;;;;;8.43;2.20;;;;;;;;;;4830091;28;20343;-77
2021/10/09 00:44:24;;;;;;;5.95;1.73;;;;;;;;;;4832381;28;20043;-77
2021/10/09 00:46:50;;;;;;;;;;;;;;;;;;4812557;28;20037;-77
2021/10/09 00:49:16;;;;;;;6.07;1.60;;;;;;;;;;4829996;28;21454;-79
2021/10/09 00:51:43;;;;;;;7.70;1.73;;;;;;;;;;4815593;28;20033;-77
2021/10/09 00:54:10;;;;;;;7.18;1.70;;;;;;;;;;4817169;28;20041;-79
2021/10/09 00:56:37;;;;;;;8.13;1.45;;;;;;;;;;4831407;28;20143;-77
2021/10/09 00:59:04;;;;;;;7.32;1.80;;;;;;;;;;4814489;28;20037;-78
2021/10/09 01:01:31;;;;;;;6.75;1.58;;;;;;;;;;4829637;28;20774;-78
2021/10/09 01:03:58;;;;;;;8.48;1.80;;;;;;;;;;4829489;28;21403;-78
2021/10/09 01:06:24;;;;;;;5.90;1.55;;;;;;;;;;4820095;28;20839;-77
2021/10/09 01:08:51;;;;;;;5.90;1.80;;;;;;;;;;4815374;28;20119;-77
2021/10/09 01:11:17;;;;;;;8.10;1.88;;;;;;;;;;4814017;28;20033;-77
2021/10/09 01:13:44;;;;;;;7.07;1.83;;;;;;;;;;4813490;28;20045;-77
2021/10/09 01:16:18;;;;;;;6.28;1.40;;;;;;;;;;4832926;28;20049;-77
2021/10/09 01:18:47;;;;;;;6.30;1.45;;;;;;;;;;4833894;28;20033;-76
2021/10/09 01:21:14;;;;;;;5.15;1.45;;;;;;;;;;4830138;28;20041;-77
2021/10/09 01:23:41;;;;;;;8.30;1.65;;;;;;;;;;4812923;28;20179;-76
2021/10/09 01:26:10;;;;;;;6.47;1.80;;;;;;;;;;4827937;28;20052;-79
2021/10/09 01:28:37;;;;;;;5.05;1.33;;;;;;;;;;4813270;28;20108;-77
2021/10/09 01:31:03;;;;;;;6.50;1.60;;;;;;;;;;4832092;28;20775;-77
2021/10/09 01:33:30;;;;;;;;;;;;;;;;;;4813022;28;20753;-77
2021/10/09 01:35:57;;;;;;;7.07;1.60;;;;;;;;;;4831156;28;19917;-77
2021/10/09 01:38:25;;;;;;;5.22;1.50;;;;;;;;;;4813095;28;20029;-76
2021/10/09 01:40:54;;;;;;;7.03;1.50;;;;;;;;;;4815796;28;20037;-78
2021/10/09 01:43:21;;;;;;;7.10;1.80;;;;;;;;;;4835484;28;20143;-76
2021/10/09 01:45:47;;;;;;;6.40;1.60;;;;;;;;;;4811976;28;20131;-76
2021/10/09 01:48:15;;;;;;;4.97;1.42;;;;;;;;;;4814539;28;20056;-76
2021/10/09 01:50:41;;;;;;;4.97;1.75;;;;;;;;;;4820532;28;20116;-77
2021/10/09 01:53:08;;;;;;;11.15;3.65;;;;;;;;;;4829296;28;20063;-77
2021/10/09 01:55:35;;;;;;;8.15;2.97;;;;;;;;;;4829588;28;20143;-77
2021/10/09 01:58:01;;;;;;;7.30;2.40;;;;;;;;;;4819768;28;20056;-78
2021/10/09 02:00:27;;;;;;;;;;;;;;;;;;4811339;28;20044;-78
2021/10/09 02:02:59;;;;;;;7.18;1.95;;;;;;;;;;4814321;28;19988;-77
2021/10/09 02:05:26;;;;;;;6.95;1.73;;;;;;;;;;4811425;28;20152;-77
2021/10/09 02:07:52;;;;;;;;;;;;;;;;;;4799247;28;21081;-76
2021/10/09 02:10:18;;;;;;;7.32;1.70;;;;;;;;;;4818192;28;19997;-77
2021/10/09 02:12:44;;;;;;;6.97;1.55;;;;;;;;;;4833380;28;20028;-77
2021/10/09 02:15:15;;;;;;;;;;;;;;;;;;4814062;28;20044;-77
2021/10/09 02:18:34;;;;;;;4.88;1.30;;;;;;;;;;4832158;28;19916;-78
2021/10/09 02:26:03;;;;;;;5.07;1.42;;;;;;;;;;4831319;28;22627;-77
2021/10/09 02:28:30;;;;;;;5.40;1.13;;;;;;;;;;4812218;28;20041;-77
2021/10/09 02:30:56;;;;;;;;;;;;;;;;;;4814199;28;21427;-77
2021/10/09 02:33:23;;;;;;;5.43;1.00;;;;;;;;;;4812211;28;19920;-76
2021/10/09 02:35:49;;;;;;;4.40;0.80;;;;;;;;;;4811459;28;20033;-78
2021/10/09 02:38:15;;;;;;;5.22;1.02;;;;;;;;;;4813992;28;20750;-78
2021/10/09 02:40:41;;;;;;;;;;;;;;;;;;4815005;28;20431;-79
2021/10/09 02:43:08;;;;;;;6.07;1.25;;;;;;;;;;4812415;28;19976;-79
2021/10/09 02:45:35;;;;;;;5.40;0.90;;;;;;;;;;4831581;28;21930;-78
2021/10/09 02:48:01;;;;;;;;;;;;;;;;;;4830685;28;20033;-78
2021/10/09 02:50:28;;;;;;;7.35;1.35;;;;;;;;;;4828468;28;19913;-80
2021/10/09 02:52:54;;;;;;;4.47;1.00;;;;;;;;;;4829974;28;21020;-77
2021/10/09 02:55:20;;;;;;;;;;;;;;;;;;4813856;28;20176;-76
2021/10/09 02:57:47;;;;;;;3.97;1.00;;;;;;;;;;4829669;28;19942;-76
2021/10/09 03:00:14;;;;;;;4.75;1.08;;;;;;;;;;4832681;28;20578;-76
2021/10/09 03:02:41;;;;;;;7.28;1.20;;;;;;;;;;4819687;28;20163;-77
2021/10/09 03:05:08;;;;;;;4.93;1.00;;;;;;;;;;4812450;28;20346;-76
2021/10/09 03:07:34;;;;;;;4.55;1.10;;;;;;;;;;4813461;28;20033;-76
2021/10/09 03:10:00;;;;;;;;;;;;;;;;;;4813800;28;20041;-76
2021/10/09 03:12:27;;;;;;;5.78;1.35;;;;;;;;;;4829415;28;19921;-76
2021/10/09 03:14:53;;;;;;;6.18;1.20;;;;;;;;;;4835028;28;20060;-77
2021/10/09 03:17:20;;;;;;;5.07;1.17;;;;;;;;;;4815011;28;20037;-77
2021/10/09 03:19:46;;;;;;;5.07;1.23;;;;;;;;;;4830944;28;20491;-76
2021/10/09 03:22:12;;;;;;;4.95;1.30;;;;;;;;;;4820371;28;21013;-77
2021/10/09 03:24:38;;;;;;;;;;;;;;;;;;4830954;28;20414;-77
2021/10/09 03:27:05;;;;;;;4.68;1.05;;;;;;;;;;4829036;28;21706;-77
2021/10/09 03:29:31;;;;;;;4.88;1.27;;;;;;;;;;4811720;28;20666;-77
2021/10/09 03:31:57;;;;;;;5.25;1.17;;;;;;;;;;4813662;28;20545;-77
2021/10/09 03:34:23;;;;;;;;;;;;;;;;;;4829365;28;20405;-78
2021/10/09 03:36:50;;;;;;;6.22;1.63;;;;;;;;;;4832355;28;19921;-77
2021/10/09 03:39:20;;;;;;;5.88;1.27;;;;;;;;;;4816672;28;20904;-79
2021/10/09 03:41:52;;;;;;;7.15;1.77;;;;;;;;;;4816461;28;20036;-77
2021/10/09 03:44:19;;;;;;;8.85;1.90;;;;;;;;;;4832577;28;20029;-77
2021/10/09 03:47:00;;;;;;;6.20;1.52;;;;;;;;;;4813223;28;20044;-77
2021/10/09 03:49:45;;;;;;;5.75;1.60;;;;;;;;;;4830787;28;20158;-79
2021/10/09 03:54:56;;;;;;;4.30;1.17;;;;;;;;;;4833839;28;20082;-77
2021/10/09 03:57:22;;;;;;;;;;;;;;;;;;4832435;28;20493;-78
2021/10/09 03:59:48;;;;;;;6.43;1.73;;;;;;;;;;4830263;28;19916;-77
2021/10/09 04:02:15;;;;;;;5.45;1.38;;;;;;;;;;4812418;28;23085;-76
2021/10/09 04:04:42;;;;;;;8.57;1.95;;;;;;;;;;4810670;28;20088;-78
2021/10/09 04:07:08;;;;;;;8.15;1.80;;;;;;;;;;4812824;28;20044;-77
2021/10/09 04:09:34;;;;;;;6.45;1.73;;;;;;;;;;4828839;28;21801;-77
2021/10/09 04:12:01;;;;;;;5.15;1.50;;;;;;;;;;4828817;28;20025;-76
2021/10/09 04:14:28;;;;;;;6.20;1.52;;;;;;;;;;4811336;28;21276;-76
2021/10/09 04:16:54;;;;;;;;;;;;;;;;;;4822391;28;21212;-76
2021/10/09 04:19:21;;;;;;;4.57;1.40;;;;;;;;;;4806628;28;19921;-76
2021/10/09 04:21:47;;;;;;;5.85;1.27;;;;;;;;;;4817581;28;20037;-76
2021/10/09 04:24:18;;;;;;;8.13;1.60;;;;;;;;;;4821952;28;20045;-76
2021/10/09 04:26:44;;;;;;;6.30;1.50;;;;;;;;;;4822855;28;21612;-76
2021/10/09 04:29:10;;;;;;;8.07;1.60;;;;;;;;;;4811057;28;20693;-76
2021/10/09 04:31:36;;;;;;;;;;;;;;;;;;4821500;28;20504;-78
2021/10/09 04:34:03;;;;;;;5.47;1.70;;;;;;;;;;4803448;28;21065;-79
2021/10/09 04:36:30;;;;;;;5.78;1.70;;;;;;;;;;4800993;28;20029;-78
2021/10/09 04:38:56;;;;;;;8.68;1.52;;;;;;;;;;4805287;28;20033;-78
2021/10/09 04:41:22;;;;;;;9.52;1.63;;;;;;;;;;4823747;28;20060;-79
2021/10/09 04:43:49;;;;;;;5.55;1.30;;;;;;;;;;4822317;28;20512;-78
2021/10/09 04:46:15;;;;;;;;;;;;;;;;;;4805942;28;20038;-79
2021/10/09 04:48:42;;;;;;;6.53;1.70;;;;;;;;;;4820765;28;19925;-79
2021/10/09 04:51:08;;;;;;;6.18;1.40;;;;;;;;;;4804623;28;20034;-77
2021/10/09 04:53:34;;;;;;;7.88;1.33;;;;;;;;;;4819698;28;20033;-77
2021/10/09 04:56:02;;;;;;;9.50;1.77;;;;;;;;;;4821929;28;21236;-77
2021/10/09 04:58:28;;;;;;;7.00;1.60;;;;;;;;;;4816347;28;21473;-77
2021/10/09 05:00:54;;;;;;;;;;;;;;;;;;4816535;28;21134;-77
2021/10/09 05:03:21;;;;;;;8.85;2.00;;;;;;;;;;4805137;28;20879;-77
2021/10/09 05:05:47;;;;;;;7.85;1.70;;;;;;;;;;4822133;28;20040;-77
2021/10/09 05:08:14;;;;;;;7.50;1.85;;;;;;;;;;4826908;28;20028;-77
2021/10/09 05:10:42;;;;;;;8.38;1.77;;;;;;;;;;4825884;28;20036;-77
2021/10/09 05:13:09;;;;;;;5.43;1.50;;;;;;;;;;4823387;28;20037;-77
2021/10/09 05:15:39;;;;;;;9.38;2.05;;;;;;;;;;4813625;28;20856;-76
2021/10/09 05:18:06;;;;;;;8.57;2.25;;;;;;;;;;4836266;28;20029;-76
2021/10/09 05:20:32;;;;;;;8.75;2.22;;;;;;;;;;4812053;28;20033;-76
2021/10/09 05:22:59;;;;;;;9.95;2.30;;;;;;;;;;4812306;28;20123;-76
2021/10/09 05:25:25;;;;;;;8.90;1.80;;;;;;;;;;4810587;28;20471;-76
2021/10/09 05:28:00;;;;;;;;;;;;;;;;;;4833386;28;20044;-76
2021/10/09 05:30:27;;;;;;;6.45;2.08;;;;;;;;;;4831422;28;20046;-78
2021/10/09 05:35:39;;;;;;;13.27;5.65;;;;;;;;;;4834973;28;20854;-80
2021/10/09 05:38:06;;;;;;;14.00;6.53;;;;;;;;;;4814475;28;20102;-79
2021/10/09 05:40:32;;;;;;;13.95;7.90;;;;;;;;;;4813416;28;20033;-78
2021/10/09 05:42:59;;;;;;;15.48;8.50;;;;;;;;;;4814372;28;20041;-77
2021/10/09 05:45:26;;;;;;;17.25;8.70;;;;;;;;;;4833571;28;20052;-77
2021/10/09 05:47:52;;;;;;;17.58;9.05;;;;;;;;;;4814135;28;20032;-77
2021/10/09 05:50:22;;;;;;;;;;;;;;;;;;4814616;28;20040;-79
2021/10/09 05:58:27;;;;;;;14.45;8.68;;;;;;;;;;4833977;28;20123;-79
2021/10/09 06:01:39;;;;;;;14.63;7.22;;;;;;;;;;4831457;28;20123;-77
2021/10/09 06:45:15;;;;;;;15.13;4.60;;;;;;;;;;4813466;28;20045;-79
2021/10/09 06:47:52;;;;;;;14.43;3.78;;;;;;;;;;4821152;28;20047;-77
2021/10/09 07:01:22;;;;;;;12.02;2.33;;;;;;;;;;4833360;28;20724;-81
2021/10/09 07:03:48;;;;;;;;;;;;;;;;;;4830243;28;20063;-78
2021/10/09 07:06:17;;;;;;;8.57;1.80;;;;;;;;;;4831184;28;19920;-78
2021/10/09 07:08:44;;;;;;;6.97;1.70;;;;;;;;;;4817466;28;20033;-78
2021/10/09 07:11:14;;;;;;;7.15;1.35;;;;;;;;;;4815309;28;20760;-78
2021/10/09 07:13:42;;;;;;;7.70;1.30;;;;;;;;;;4830347;28;20044;-77
2021/10/09 07:16:09;;;;;;;10.68;1.90;;;;;;;;;;4830333;28;20075;-77
2021/10/09 07:18:35;;;;;;;9.68;1.83;;;;;;;;;;4815179;28;20042;-77
2021/10/09 07:21:01;;;;;;;8.55;1.90;;;;;;;;;;4813512;28;20156;-77
2021/10/09 07:23:27;;;;;;;;;;;;;;;;;;4811733;28;20037;-78
2021/10/09 07:25:55;;;;;;;14.30;1.58;;;;;;;;;;4826702;28;20640;-78
2021/10/09 07:28:24;;;;;;;8.13;1.58;;;;;;;;;;4813147;28;20072;-78
2021/10/09 07:30:50;;;;;;;6.60;1.65;;;;;;;;;;4813194;28;20045;-78
2021/10/09 07:33:17;;;;;;;10.52;1.75;;;;;;;;;;4828447;28;20079;-77
2021/10/09 07:35:44;;;;;;;7.82;1.80;;;;;;;;;;4965690;28;20033;-79
2021/10/09 07:38:11;;;;;;;8.18;1.95;;;;;;;;;;5011903;28;20032;-77
2021/10/09 07:40:37;;;;;;;9.48;2.58;;;;;;;;;;5012272;28;20033;-78
2021/10/09 07:43:03;;;;;;;;;;;;;;;;;;4859881;28;21170;-78
2021/10/09 07:45:30;;;;;;;9.05;1.95;;;;;;;;;;4831418;28;21354;-77
2021/10/09 07:47:56;;;;;;;8.00;2.03;;;;;;;;;;4817077;28;20028;-77
2021/10/09 07:50:23;;;;;;;11.88;2.38;;;;;;;;;;4832548;28;20167;-78
2021/10/09 07:52:49;;;;;;;7.97;2.20;;;;;;;;;;4831377;28;20130;-79
2021/10/09 07:55:15;;;;;;;;;;;;;;;;;;4830672;28;20063;-78
2021/10/09 07:57:42;;;;;;;9.05;1.98;;;;;;;;;;4812084;28;20674;-77
2021/10/09 08:00:09;;;;;;;11.65;1.70;;;;;;;;;;4808687;28;20051;-79
2021/10/09 08:02:36;;;;;;;10.07;2.08;;;;;;;;;;4811606;28;21542;-79
2021/10/09 08:14:46;;;;;;;8.63;1.67;;;;;;;;;;4581974;29;20114;-79
2021/10/09 08:17:23;;;;;;;;;;;;;;;;;;;;;
2021/10/09 08:19:52;;;;;;;8.50;1.50;;;;;;;;;;4582460;29;20062;-78
2021/10/09 08:22:23;;;;;;;7.05;1.55;;;;;;;;;;4581638;29;20078;-78
2021/10/09 08:40:48;;;;;;;7.88;1.40;;;;;;;;;;4585168;29;20050;-78
2021/10/09 08:43:14;;;;;;;7.40;1.60;;;;;;;;;;4581270;29;20038;-77
2021/10/09 08:45:43;;;;;;;11.75;1.70;;;;;;;;;;4582521;29;20050;-77
2021/10/09 08:48:12;;;;;;;8.18;1.60;;;;;;;;;;4656292;28;22722;-77
2021/10/09 08:50:43;;;;;;;7.68;1.58;;;;;;;;;;4726052;28;22685;-79
2021/10/09 08:53:12;;;;;;;5.93;1.48;;;;;;;;;;4774567;28;20809;-80
2021/10/09 08:55:44;;;;;;;8.57;1.85;;;;;;;;;;4762343;28;20035;-79
2021/10/09 08:58:29;;;;;;;9.18;2.30;;;;;;;;;;4743771;28;20043;-77
2021/10/09 09:03:33;;;;;;;8.80;1.88;;;;;;;;;;4754623;28;20206;-78
2021/10/09 09:06:23;;;;;;;7.57;2.20;;;;;;;;;;4747323;28;20054;-77
2021/10/09 09:09:14;;;;;;;7.63;2.20;;;;;;;;;;4758686;28;20042;-77
2021/10/09 09:25:50;;;;;;;8.48;1.50;;;;;;;;;;4755855;28;20113;-79
2021/10/09 09:39:09;;;;;;;10.05;2.33;;;;;;;;;;4750659;28;20821;-79
2021/10/09 09:41:45;;;;;;;9.80;1.98;;;;;;;;;;4743462;28;20035;-77
2021/10/09 09:44:14;;;;;;;5.70;1.35;;;;;;;;;;4752398;28;20073;-77
2021/10/09 09:46:42;;;;;;;6.65;1.45;;;;;;;;;;4769100;28;20703;-77
2021/10/09 09:49:12;;;;;;;7.10;1.50;;;;;;;;;;4774508;28;20977;-77
2021/10/09 09:51:41;;;;;;;7.22;1.67;;;;;;;;;;4775088;28;20772;-80
2021/10/09 09:54:09;;;;;;;7.88;1.48;;;;;;;;;;4773993;28;20121;-79
2021/10/09 09:56:35;;;;;;;9.38;1.80;;;;;;;;;;4757593;28;20788;-78
2021/10/09 09:59:07;;;;;;;8.10;1.98;;;;;;;;;;4776729;28;20046;-78
2021/10/09 10:01:36;;;;;;;7.47;1.70;;;;;;;;;;4756558;28;21000;-77
2021/10/09 10:04:04;;;;;;;7.38;1.63;;;;;;;;;;4778385;28;20108;-77
2021/10/09 10:06:31;;;;;;;4.80;1.30;;;;;;;;;;4775401;28;20065;-79
2021/10/09 10:08:59;;;;;;;6.40;1.40;;;;;;;;;;4756204;28;20027;-80
2021/10/09 10:11:29;;;;;;;6.43;1.60;;;;;;;;;;4771921;28;20037;-77
2021/10/09 10:14:01;;;;;;;8.32;1.58;;;;;;;;;;4766107;28;20120;-79
2021/10/09 10:16:27;;;;;;;6.38;1.65;;;;;;;;;;4777682;28;21837;-77
2021/10/09 10:18:54;;;;;;;6.70;1.65;;;;;;;;;;4765643;28;21761;-78
2021/10/09 10:21:44;;;;;;;5.70;1.50;;;;;;;;;;4749345;28;20077;-77
2021/10/09 10:24:33;;;;;;;7.05;1.70;;;;;;;;;;4756139;28;20659;-78
2021/10/09 10:27:20;;;;;;;6.35;1.38;;;;;;;;;;4755352;28;20038;-79
2021/10/09 10:29:48;;;;;;;8.77;1.70;;;;;;;;;;4747136;28;20092;-77
2021/10/09 10:32:17;;;;;;;10.68;1.98;;;;;;;;;;4775800;28;20031;-77
2021/10/09 10:34:47;;;;;;;8.32;1.88;;;;;;;;;;4776333;28;20089;-77
2021/10/09 10:37:37;;;;;;;7.15;1.73;;;;;;;;;;4777432;28;20057;-77
2021/10/09 10:40:06;;;;;;;7.25;1.92;;;;;;;;;;4756847;28;20065;-78
2021/10/09 10:42:33;;;;;;;6.55;1.60;;;;;;;;;;4773354;28;20076;-77
2021/10/09 10:45:07;;;;;;;5.20;1.40;;;;;;;;;;4751946;28;20038;-77
2021/10/09 10:50:38;;;;;;;5.57;1.30;;;;;;;;;;4775599;28;20046;-77
2021/10/09 10:53:09;;;;;;;5.65;1.35;;;;;;;;;;4757294;28;20096;-79
2021/10/09 10:55:56;;;;;;;5.35;1.33;;;;;;;;;;4774182;28;20042;-77
2021/10/09 10:58:25;;;;;;;8.95;1.52;;;;;;;;;;4775219;28;21459;-76
2021/10/09 11:01:12;;;;;;;6.13;1.15;;;;;;;;;;4772959;28;20753;-79
2021/10/09 11:03:59;;;;;;;7.30;1.30;;;;;;;;;;4766875;28;20046;-77
2021/10/09 11:06:29;;;;;;;5.75;1.13;;;;;;;;;;4773222;28;20665;-77
2021/10/09 11:08:56;;;;;;;7.10;1.23;;;;;;;;;;4754209;28;20061;-79
2021/10/09 11:11:35;;;;;;;6.47;1.48;;;;;;;;;;4759361;28;20438;-77
2021/10/09 11:14:04;;;;;;;5.72;1.60;;;;;;;;;;4748307;28;20046;-77
2021/10/09 11:16:33;;;;;;;6.85;1.67;;;;;;;;;;4778583;28;20813;-77
2021/10/09 11:19:00;;;;;;;8.02;1.50;;;;;;;;;;4773256;28;20053;-77
2021/10/09 11:21:28;;;;;;;6.28;1.33;;;;;;;;;;4758531;28;20674;-78
2021/10/09 11:24:00;;;;;;;7.25;1.88;;;;;;;;;;4773776;28;20746;-77
2021/10/09 11:26:30;;;;;;;8.15;2.28;;;;;;;;;;4758227;28;20119;-77
2021/10/09 11:29:02;;;;;;;8.05;2.08;;;;;;;;;;4778389;28;20045;-77
2021/10/09 11:32:05;;;;;;;8.40;2.20;;;;;;;;;;4754645;28;20057;-77
2021/10/09 11:34:34;;;;;;;6.18;1.50;;;;;;;;;;4765267;28;20042;-76
2021/10/09 11:37:04;;;;;;;7.80;1.55;;;;;;;;;;4761704;28;20053;-77
2021/10/09 11:39:45;;;;;;;6.25;1.38;;;;;;;;;;4763437;28;20085;-77
2021/10/09 11:42:16;;;;;;;6.93;2.00;;;;;;;;;;4750985;28;20681;-76
2021/10/09 11:44:52;;;;;;;7.78;1.88;;;;;;;;;;4763815;28;20093;-78
2021/10/09 11:53:31;;;;;;;8.13;2.88;;;;;;;;;;4760296;28;20054;-77
2021/10/09 11:56:05;;;;;;;6.40;2.00;;;;;;;;;;4761557;28;20085;-77
2021/10/09 11:58:33;;;;;;;7.20;1.60;;;;;;;;;;4746826;28;20065;-77
2021/10/09 12:01:10;;;;;;;8.98;1.67;;;;;;;;;;4762916;28;20402;-77
2021/10/09 12:03:39;;;;;;;8.07;1.58;;;;;;;;;;4759413;28;20039;-77
2021/10/09 12:06:11;;;;;;;5.53;1.50;;;;;;;;;;4760880;28;20034;-77
2021/10/09 12:08:49;;;;;;;6.30;1.50;;;;;;;;;;4762718;28;20042;-77
2021/10/09 12:11:32;;;;;;;3.63;1.15;;;;;;;;;;4747828;28;20087;-78
2021/10/09 12:14:10;;;;;;;6.47;1.25;;;;;;;;;;4760739;28;20035;-77
2021/10/09 12:16:44;;;;;;;6.68;1.55;;;;;;;;;;4752323;28;20042;-78
2021/10/09 12:19:13;;;;;;;6.55;1.40;;;;;;;;;;4760197;28;20066;-78
2021/10/09 12:21:45;;;;;;;6.82;1.67;;;;;;;;;;4740155;28;20120;-77
2021/10/09 12:24:18;;;;;;;5.68;1.42;;;;;;;;;;4778629;28;20046;-79
2021/10/09 12:27:04;;;;;;;4.63;1.10;;;;;;;;;;4757470;28;20038;-77
2021/10/09 12:29:32;;;;;;;6.70;1.15;;;;;;;;;;4756528;28;20042;-78
2021/10/09 12:32:19;;;;;;;4.95;1.30;;;;;;;;;;4780509;28;20042;-77
2021/10/09 12:34:52;;;;;;;6.70;1.67;;;;;;;;;;4776117;28;20053;-78
2021/10/09 12:37:26;;;;;;;7.00;1.67;;;;;;;;;;4763400;28;21588;-78
2021/10/09 12:40:26;;;;;;;5.70;1.50;;;;;;;;;;4782571;28;20046;-77
2021/10/09 12:42:58;;;;;;;6.10;1.40;;;;;;;;;;4700713;29;20536;-79
2021/10/09 12:45:27;;;;;;;5.47;1.40;;;;;;;;;;4715915;28;20822;-76
2021/10/09 12:47:56;;;;;;;6.70;1.20;;;;;;;;;;4700963;28;20493;-78
2021/10/09 12:50:24;;;;;;;5.18;1.38;;;;;;;;;;4715516;28;20128;-78
2021/10/09 12:52:53;;;;;;;8.30;1.40;;;;;;;;;;4721617;28;20043;-77
2021/10/09 12:55:22;;;;;;;7.68;2.40;;;;;;;;;;4717511;28;20036;-78
2021/10/09 12:57:51;;;;;;;5.65;1.70;;;;;;;;;;4699848;29;21054;-77
2021/10/09 13:00:21;;;;;;;6.53;1.33;;;;;;;;;;4715737;28;20071;-77
2021/10/09 13:02:51;;;;;;;7.35;1.80;;;;;;;;;;4702547;29;20074;-77
2021/10/09 13:05:19;;;;;;;7.15;1.10;;;;;;;;;;4719625;28;20134;-77
2021/10/09 13:07:47;;;;;;;6.25;2.00;;;;;;;;;;4693041;29;20056;-78
2021/10/09 13:10:13;;;;;;;8.40;2.47;;;;;;;;;;4701775;28;20590;-78
2021/10/09 13:12:42;;;;;;;7.38;2.60;;;;;;;;;;4700246;29;20157;-78
2021/10/09 13:15:10;;;;;;;6.18;1.65;;;;;;;;;;4700888;29;20047;-79
2021/10/09 13:17:38;;;;;;;8.65;2.28;;;;;;;;;;4692042;28;20028;-77
2021/10/09 13:20:07;;;;;;;5.90;1.35;;;;;;;;;;4761314;28;22614;-77
2021/10/09 13:22:35;;;;;;;6.80;2.13;;;;;;;;;;4750966;28;20065;-77
2021/10/09 13:25:06;;;;;;;5.25;1.45;;;;;;;;;;4759552;28;20051;-77
2021/10/09 13:27:35;;;;;;;4.03;1.10;;;;;;;;;;4747788;28;20069;-77
2021/10/09 13:30:06;;;;;;;5.28;1.30;;;;;;;;;;4760194;28;20038;-77
2021/10/09 13:32:33;;;;;;;6.00;1.27;;;;;;;;;;4742826;28;20030;-77
2021/10/09 13:35:03;;;;;;;6.57;1.55;;;;;;;;;;4746043;28;20035;-80
2021/10/09 13:37:36;;;;;;;7.03;1.35;;;;;;;;;;4757540;28;20187;-78
2021/10/09 13:43:14;;;;;;;6.35;2.13;;;;;;;;;;4762554;28;21560;-82
2021/10/09 13:45:45;;;;;;;7.90;1.77;;;;;;;;;;4749476;28;20046;-82
2021/10/09 13:48:15;;;;;;;8.27;1.40;;;;;;;;;;4769829;28;20125;-80
2021/10/09 13:50:46;;;;;;;6.63;1.77;;;;;;;;;;4748740;28;20172;-81
2021/10/09 13:53:19;;;;;;;6.38;1.23;;;;;;;;;;4741224;28;20188;-80
2021/10/09 13:55:49;;;;;;;11.18;3.80;;;;;;;;;;4761503;28;20078;-81
2021/10/09 13:58:17;;;;;;;8.38;2.97;;;;;;;;;;4747140;28;20035;-83
2021/10/09 14:00:48;;;;;;;7.63;2.00;;;;;;;;;;4758294;28;20038;-81
2021/10/09 14:03:25;;;;;;;7.03;2.05;;;;;;;;;;4763712;28;20065;-80
2021/10/09 14:05:54;;;;;;;5.75;1.80;;;;;;;;;;4759871;28;20061;-82
2021/10/09 14:08:24;;;;;;;6.38;1.58;;;;;;;;;;4763453;28;20050;-80
2021/10/09 14:10:52;;;;;;;6.40;1.38;;;;;;;;;;4777863;28;21773;-81
2021/10/09 14:13:21;;;;;;;6.15;1.35;;;;;;;;;;4784721;28;20085;-81
2021/10/09 14:15:57;;;;;;;4.93;1.30;;;;;;;;;;4777245;28;20050;-79
2021/10/09 14:18:28;;;;;;;6.47;1.35;;;;;;;;;;4760054;28;20042;-80
2021/10/09 14:20:57;;;;;;;6.00;1.45;;;;;;;;;;4761476;28;20034;-81
2021/10/09 14:23:24;;;;;;;5.50;1.45;;;;;;;;;;4778681;28;20023;-80
2021/10/09 14:25:54;;;;;;;6.20;1.50;;;;;;;;;;4777871;28;20141;-79
2021/10/09 14:28:24;;;;;;;7.50;1.60;;;;;;;;;;4778981;28;20031;-79
2021/10/09 14:30:50;;;;;;;8.55;1.80;;;;;;;;;;4775721;28;20045;-80
2021/10/09 14:33:18;;;;;;;6.90;1.80;;;;;;;;;;4894905;28;20079;-79
2021/10/09 14:35:46;;;;;;;8.23;2.03;;;;;;;;;;4905515;28;20403;-80
2021/10/09 14:38:14;;;;;;;10.05;2.40;;;;;;;;;;4915565;28;20122;-80
2021/10/09 14:40:44;;;;;;;7.18;1.50;;;;;;;;;;4918836;28;20142;-80
2021/10/09 14:43:12;;;;;;;10.27;2.53;;;;;;;;;;4879443;28;20087;-80
2021/10/09 14:45:43;;;;;;;8.82;2.47;;;;;;;;;;4865507;28;20819;-80
2021/10/09 14:48:20;;;;;;;8.50;2.08;;;;;;;;;;4775433;28;20054;-81
2021/10/09 14:51:05;;;;;;;6.65;1.95;;;;;;;;;;4732098;28;21441;-79
2021/10/09 15:18:42;;;;;;;5.45;1.67;;;;;;;;;;4764236;28;20065;-80
2021/10/09 15:21:11;;;;;;;7.35;1.80;;;;;;;;;;4761992;28;20117;-82
2021/10/09 15:23:41;;;;;;;7.15;1.55;;;;;;;;;;4765880;28;20026;-80
2021/10/09 15:26:08;;;;;;;6.90;1.40;;;;;;;;;;4760014;28;21255;-82
2021/10/09 15:28:41;;;;;;;5.28;1.25;;;;;;;;;;4762681;28;20054;-82
2021/10/09 15:31:11;;;;;;;5.82;1.38;;;;;;;;;;4754523;28;21477;-82
2021/10/09 15:33:39;;;;;;;6.45;1.50;;;;;;;;;;4762759;28;20850;-82
2021/10/09 15:36:05;;;;;;;5.18;1.30;;;;;;;;;;4765620;28;20042;-80
2021/10/09 15:38:57;;;;;;;10.13;1.70;;;;;;;;;;4799798;28;20050;-82
2021/10/09 15:41:24;;;;;;;7.18;1.42;;;;;;;;;;4921320;28;20051;-81
2021/10/09 15:43:56;;;;;;;6.70;1.55;;;;;;;;;;4942713;28;20043;-81
2021/10/09 15:46:39;;;;;;;7.68;1.40;;;;;;;;;;4937723;28;20615;-81
2021/10/09 15:49:09;;;;;;;7.25;1.65;;;;;;;;;;4923516;28;20050;-81
2021/10/09 15:51:38;;;;;;;6.47;1.50;;;;;;;;;;4930408;28;20101;-80
2021/10/09 15:54:07;;;;;;;5.95;1.52;;;;;;;;;;4814056;28;20559;-80
2021/10/09 15:56:45;;;;;;;5.75;1.42;;;;;;;;;;4764438;28;20042;-80
2021/10/09 15:59:11;;;;;;;6.50;1.60;;;;;;;;;;4764291;28;20085;-80
2021/10/09 16:01:38;;;;;;;6.60;1.60;;;;;;;;;;4762844;28;20038;-80
2021/10/09 16:04:06;;;;;;;7.95;1.45;;;;;;;;;;4748440;28;20038;-79
2021/10/09 16:06:35;;;;;;;6.60;1.40;;;;;;;;;;4761148;28;20206;-80
2021/10/09 16:09:04;;;;;;;6.60;1.83;;;;;;;;;;4759973;28;20061;-80
2021/10/09 16:11:31;;;;;;;7.22;1.73;;;;;;;;;;4858162;28;20043;-81
2021/10/09 16:14:06;;;;;;;6.78;2.00;;;;;;;;;;4763278;28;20155;-79
2021/10/09 16:16:32;;;;;;;7.53;1.70;;;;;;;;;;4758606;28;20084;-80
2021/10/09 16:19:01;;;;;;;5.32;1.42;;;;;;;;;;4760233;28;20049;-81
2021/10/09 16:21:28;;;;;;;6.95;2.13;;;;;;;;;;4783683;28;20042;-80
2021/10/09 16:23:55;;;;;;;5.85;1.80;;;;;;;;;;4764309;28;20709;-80
2021/10/09 16:26:24;;;;;;;7.93;1.67;;;;;;;;;;4773975;28;20075;-80
2021/10/09 16:28:53;;;;;;;9.23;2.30;;;;;;;;;;4758529;28;20039;-80
2021/10/09 16:31:24;;;;;;;8.88;1.95;;;;;;;;;;4732745;28;20039;-79
2021/10/09 16:33:52;;;;;;;8.27;2.08;;;;;;;;;;4776409;28;20075;-80
2021/10/09 16:36:19;;;;;;;7.45;1.90;;;;;;;;;;4752244;28;20397;-79
2021/10/09 16:38:48;;;;;;;8.35;2.53;;;;;;;;;;4896197;28;20042;-79
2021/10/09 16:41:16;;;;;;;9.93;2.42;;;;;;;;;;4939859;28;20066;-80
2021/10/09 16:43:44;;;;;;;7.90;2.53;;;;;;;;;;4834151;28;20090;-79
2021/10/09 16:46:13;;;;;;;8.27;2.47;;;;;;;;;;4756452;28;20188;-81
2021/10/09 16:48:41;;;;;;;8.93;3.45;;;;;;;;;;4792800;28;20047;-80
2021/10/09 16:51:10;;;;;;;9.40;2.67;;;;;;;;;;4799004;28;20050;-80
2021/10/09 16:53:40;;;;;;;9.25;2.25;;;;;;;;;;4786345;28;20049;-80
2021/10/09 16:56:08;;;;;;;8.82;2.60;;;;;;;;;;4778033;28;20085;-80
2021/10/09 16:58:35;;;;;;;9.90;2.92;;;;;;;;;;4771487;28;20086;-80
2021/10/09 17:01:03;;;;;;;7.72;2.00;;;;;;;;;;4762084;28;20034;-79
2021/10/09 17:03:31;;;;;;;9.25;2.47;;;;;;;;;;4781086;28;20039;-79
2021/10/09 17:06:00;;;;;;;10.30;2.67;;;;;;;;;;4759733;28;20037;-80
2021/10/09 17:08:32;;;;;;;7.95;2.17;;;;;;;;;;4784333;28;20078;-81
2021/10/09 17:11:02;;;;;;;10.75;2.63;;;;;;;;;;4802737;28;20038;-80
2021/10/09 17:13:30;;;;;;;7.53;2.33;;;;;;;;;;4918976;28;20103;-80
2021/10/09 17:15:58;;;;;;;9.23;2.95;;;;;;;;;;4963053;28;20042;-80
2021/10/09 17:18:25;;;;;;;7.90;2.45;;;;;;;;;;4943779;28;20046;-80
2021/10/09 17:20:51;;;;;;;9.63;2.50;;;;;;;;;;4962420;28;20061;-79
2021/10/09 17:23:19;;;;;;;9.23;2.63;;;;;;;;;;4958748;28;20434;-80
2021/10/09 17:25:45;;;;;;;9.93;2.65;;;;;;;;;;4960352;28;20129;-80
2021/10/09 17:28:13;;;;;;;8.95;2.75;;;;;;;;;;4959512;28;20039;-81
2021/10/09 17:30:45;;;;;;;8.23;2.30;;;;;;;;;;4946669;28;20045;-80
2021/10/09 17:33:11;;;;;;;10.18;2.60;;;;;;;;;;4951535;28;20116;-81
2021/10/09 17:35:40;;;;;;;10.70;2.97;;;;;;;;;;4968243;28;20110;-81
2021/10/09 17:38:09;;;;;;;8.40;2.72;;;;;;;;;;4945309;28;20065;-80
2021/10/09 17:40:37;;;;;;;9.85;2.60;;;;;;;;;;4955022;28;20633;-81
2021/10/09 17:43:08;;;;;;;7.90;2.30;;;;;;;;;;4964241;28;20053;-80